createdAt,value
2022-12-24T00:01:04.544Z,34.15
2022-12-24T00:03:31.391Z,29.33
2022-12-24T00:05:58.429Z,36.42
2022-12-24T00:08:25.239Z,26.83
2022-12-24T00:10:52.591Z,38.53
2022-12-24T00:13:20.088Z,29.30
2022-12-24T00:15:46.909Z,29.83
2022-12-24T00:18:13.757Z,23.15
2022-12-24T00:20:40.873Z,33.20
2022-12-24T00:23:07.905Z,41.45
2022-12-24T00:25:34.829Z,29.02
2022-12-24T00:28:01.474Z,31.30
2022-12-24T00:30:28.157Z,40.88
2022-12-24T00:32:55.019Z,27.75
2022-12-24T00:35:21.954Z,38.75
2022-12-24T00:37:49.100Z,51.13
2022-12-24T00:40:16.963Z,46.83
2022-12-24T00:42:44.285Z,50.97
2022-12-24T00:45:12.733Z,39.25
2022-12-24T00:47:39.374Z,56.78
2022-12-24T00:50:06.984Z,57.13
2022-12-24T00:52:33.809Z,50.13
2022-12-24T00:55:00.530Z,49.97
2022-12-24T00:57:27.283Z,40.60
2022-12-24T00:59:53.901Z,46.22
2022-12-24T01:02:20.839Z,44.55
2022-12-24T01:05:06.019Z,47.60
2022-12-24T01:07:32.626Z,59.30
2022-12-24T01:09:59.351Z,43.13
2022-12-24T01:12:26.052Z,57.78
2022-12-24T01:14:52.702Z,39.50
2022-12-24T01:17:19.469Z,52.13
2022-12-24T01:19:46.143Z,50.13
2022-12-24T01:22:12.800Z,49.72
2022-12-24T01:24:41.953Z,53.97
2022-12-24T01:27:08.631Z,45.65
2022-12-24T01:29:35.267Z,44.78
2022-12-24T01:32:01.894Z,43.95
2022-12-24T01:34:28.523Z,36.45
2022-12-24T01:36:55.122Z,30.02
2022-12-24T01:39:21.783Z,39.03
2022-12-24T01:42:07.024Z,34.53
2022-12-24T01:44:39.704Z,39.05
2022-12-24T01:47:27.061Z,38.47
2022-12-24T01:49:58.188Z,43.78
2022-12-24T01:52:29.456Z,39.40
2022-12-24T01:55:04.643Z,41.38
2022-12-24T01:57:41.824Z,28.77
2022-12-24T02:00:11.617Z,47.22
2022-12-24T02:02:43.511Z,42.25
2022-12-24T02:05:16.718Z,42.97
2022-12-24T02:07:43.698Z,40.30
2022-12-24T02:10:13.075Z,40.17
2022-12-24T02:12:41.545Z,38.17
2022-12-24T02:15:11.305Z,50.78
2022-12-24T02:18:11.088Z,38.30
2022-12-24T02:20:56.434Z,47.47
2022-12-24T02:23:56.219Z,40.40
2022-12-24T02:26:57.533Z,43.15
2022-12-24T02:29:42.755Z,46.22
2022-12-24T02:32:12.335Z,40.40
2022-12-24T02:34:47.741Z,39.17
2022-12-24T02:37:20.469Z,31.25
2022-12-24T02:39:52.038Z,44.88
2022-12-24T02:42:25.530Z,42.58
2022-12-24T02:45:02.856Z,33.53
2022-12-24T02:47:34.064Z,37.33
2022-12-24T02:50:02.298Z,35.50
2022-12-24T02:52:37.779Z,31.20
2022-12-24T02:55:10.464Z,35.50
2022-12-24T02:58:05.224Z,34.97
2022-12-24T03:00:54.934Z,38.45
2022-12-24T03:03:36.619Z,29.20
2022-12-24T03:06:19.707Z,33.70
2022-12-24T03:09:08.376Z,33.00
2022-12-24T03:11:38.115Z,42.70
2022-12-24T03:14:04.804Z,41.88
2022-12-24T03:16:31.730Z,40.40
2022-12-24T03:18:59.760Z,29.02
2022-12-24T03:21:33.783Z,42.92
2022-12-24T03:24:01.016Z,56.23
2022-12-24T03:26:29.634Z,40.28
2022-12-24T03:28:56.360Z,34.15
2022-12-24T03:31:23.463Z,34.20
2022-12-24T03:33:50.405Z,33.83
2022-12-24T03:36:18.151Z,34.38
2022-12-24T03:38:44.743Z,49.65
2022-12-24T03:41:11.397Z,39.08
2022-12-24T03:43:38.443Z,27.77
2022-12-24T03:46:09.047Z,36.90
2022-12-24T03:48:36.424Z,36.67
2022-12-24T03:51:04.213Z,38.92
2022-12-24T03:53:31.216Z,42.03
2022-12-24T03:55:58.131Z,32.17
2022-12-24T03:58:24.744Z,46.85
2022-12-24T04:00:53.721Z,33.70
2022-12-24T04:03:20.857Z,28.70
2022-12-24T04:05:47.578Z,30.13
2022-12-24T04:08:14.198Z,22.92
2022-12-24T04:10:40.816Z,34.92
2022-12-24T04:13:07.462Z,41.80
2022-12-24T04:15:34.082Z,28.48
2022-12-24T04:18:00.709Z,40.72
2022-12-24T04:20:27.369Z,33.67
2022-12-24T04:22:54.226Z,29.15
2022-12-24T04:25:20.886Z,30.45
2022-12-24T04:27:47.519Z,26.02
2022-12-24T04:30:14.362Z,33.63
2022-12-24T04:32:41.004Z,35.60
2022-12-24T04:35:07.969Z,34.47
2022-12-24T04:37:35.078Z,45.30
2022-12-24T04:40:01.761Z,49.78
2022-12-24T04:42:28.360Z,21.40
2022-12-24T04:44:54.989Z,36.75
2022-12-24T04:47:21.569Z,36.97
2022-12-24T04:49:48.188Z,38.35
2022-12-24T04:52:14.800Z,39.25
2022-12-24T04:54:41.729Z,30.23
2022-12-24T04:57:08.306Z,30.88
2022-12-24T04:59:34.883Z,34.45
2022-12-24T05:02:01.683Z,37.95
2022-12-24T05:04:28.417Z,30.52
2022-12-24T05:06:55.003Z,31.88
2022-12-24T05:09:21.674Z,37.63
2022-12-24T05:11:48.310Z,37.47
2022-12-24T05:14:14.884Z,37.05
2022-12-24T05:16:41.631Z,31.23
2022-12-24T05:19:08.355Z,48.50
2022-12-24T05:21:35.137Z,37.13
2022-12-24T05:24:20.300Z,33.28
2022-12-24T05:26:50.919Z,32.40
2022-12-24T05:29:17.598Z,42.30
2022-12-24T05:31:45.377Z,41.92
2022-12-24T05:34:13.890Z,41.55
2022-12-24T05:36:40.788Z,41.10
2022-12-24T05:39:13.525Z,40.90
2022-12-24T05:41:42.291Z,41.63
2022-12-24T05:44:08.969Z,41.30
2022-12-24T05:46:35.728Z,50.17
2022-12-24T05:49:02.515Z,31.50
2022-12-24T05:51:29.152Z,45.92
2022-12-24T05:53:55.741Z,41.05
2022-12-24T05:56:24.248Z,45.67
2022-12-24T05:58:52.010Z,45.67
2022-12-24T06:01:19.216Z,49.10
2022-12-24T06:03:46.035Z,43.78
2022-12-24T06:06:15.607Z,50.83
2022-12-24T06:08:42.392Z,42.38
2022-12-24T06:11:12.203Z,42.17
2022-12-24T06:13:40.315Z,43.47
2022-12-24T06:16:09.218Z,32.72
2022-12-24T06:18:36.444Z,42.45
2022-12-24T06:21:04.829Z,39.03
2022-12-24T06:23:34.127Z,46.63
2022-12-24T06:26:01.888Z,51.83
2022-12-24T06:28:29.798Z,52.03
2022-12-24T06:31:02.407Z,40.05
2022-12-24T06:33:30.230Z,49.40
2022-12-24T06:35:56.825Z,51.60
2022-12-24T06:38:23.422Z,55.05
2022-12-24T06:40:50.125Z,50.10
2022-12-24T06:43:16.849Z,54.60
2022-12-24T06:45:47.865Z,43.03
2022-12-24T06:48:15.517Z,52.60
2022-12-24T06:50:42.802Z,54.70
2022-12-24T06:53:10.093Z,47.45
2022-12-24T06:55:37.369Z,49.10
2022-12-24T06:58:04.171Z,63.78
2022-12-24T07:00:31.040Z,62.72
2022-12-24T07:02:57.809Z,54.78
2022-12-24T07:05:24.516Z,42.72
2022-12-24T07:07:51.263Z,49.17
2022-12-24T07:10:19.491Z,47.95
2022-12-24T07:12:46.454Z,37.40
2022-12-24T07:15:14.506Z,55.13
2022-12-24T07:17:41.410Z,55.15
2022-12-24T07:20:11.441Z,58.67
2022-12-24T07:22:38.062Z,52.13
2022-12-24T07:25:05.188Z,55.45
2022-12-24T07:27:31.910Z,50.13
2022-12-24T07:29:58.555Z,50.45
2022-12-24T07:32:25.155Z,55.38
2022-12-24T07:34:51.834Z,47.50
2022-12-24T07:37:18.452Z,51.05
2022-12-24T07:39:45.436Z,48.50
2022-12-24T07:42:12.050Z,60.90
2022-12-24T07:44:39.826Z,66.43
2022-12-24T07:47:06.528Z,54.70
2022-12-24T07:49:33.251Z,62.35
2022-12-24T07:51:59.873Z,35.85
2022-12-24T07:54:26.496Z,55.13
2022-12-24T07:56:53.201Z,56.25
2022-12-24T07:59:20.496Z,52.35
2022-12-24T08:01:47.435Z,39.53
2022-12-24T08:04:14.228Z,51.72
2022-12-24T08:06:41.299Z,59.13
2022-12-24T08:09:07.947Z,34.63
2022-12-24T08:11:34.528Z,31.63
2022-12-24T08:14:01.176Z,43.38
2022-12-24T08:16:27.952Z,44.47
2022-12-24T08:18:54.733Z,42.70
2022-12-24T08:21:21.397Z,42.63
2022-12-24T08:23:48.031Z,34.00
2022-12-24T08:26:14.902Z,36.20
2022-12-24T08:28:41.692Z,31.45
2022-12-24T08:31:08.459Z,39.20
2022-12-24T08:33:35.280Z,48.08
2022-12-24T08:36:02.367Z,46.25
2022-12-24T08:38:29.618Z,40.70
2022-12-24T08:40:56.619Z,40.17
2022-12-24T08:43:25.337Z,39.28
2022-12-24T08:45:52.068Z,36.40
2022-12-24T08:48:18.811Z,39.30
2022-12-24T08:50:45.534Z,39.30
2022-12-24T08:53:12.713Z,31.92
2022-12-24T08:55:39.546Z,37.60
2022-12-24T08:58:06.170Z,37.72
2022-12-24T09:00:33.079Z,33.00
2022-12-24T09:02:59.835Z,23.02
2022-12-24T09:05:26.537Z,44.65
2022-12-24T09:07:53.468Z,29.13
2022-12-24T09:10:20.402Z,32.00
2022-12-24T09:12:47.673Z,28.67
2022-12-24T09:15:14.382Z,25.23
2022-12-24T09:17:41.247Z,40.40
2022-12-24T09:20:08.784Z,34.70
2022-12-24T09:22:37.396Z,37.38
2022-12-24T09:25:06.104Z,27.55
2022-12-24T09:27:32.953Z,34.45
2022-12-24T09:29:59.575Z,36.35
2022-12-24T09:32:26.219Z,48.88
2022-12-24T09:34:52.891Z,48.08
2022-12-24T09:37:19.587Z,32.72
2022-12-24T09:39:46.227Z,39.80
2022-12-24T09:42:34.293Z,44.45
2022-12-24T09:45:28.868Z,40.95
2022-12-24T09:48:09.300Z,40.42
2022-12-24T09:50:35.874Z,42.30
2022-12-24T09:53:07.544Z,46.95
2022-12-24T09:55:41.210Z,36.08
2022-12-24T09:58:19.022Z,31.13
2022-12-24T10:00:49.920Z,39.28
2022-12-24T10:03:18.202Z,38.90
2022-12-24T10:05:51.466Z,39.65
2022-12-24T10:08:34.868Z,27.75
2022-12-24T10:11:06.579Z,38.70
2022-12-24T10:13:52.682Z,36.58
2022-12-24T10:16:19.571Z,46.05
2022-12-24T10:19:01.654Z,45.88
2022-12-24T10:21:44.879Z,39.67
2022-12-24T10:24:30.558Z,33.42
2022-12-24T10:27:06.749Z,31.05
2022-12-24T10:29:37.176Z,39.38
2022-12-24T10:32:09.718Z,35.65
2022-12-24T10:34:53.614Z,41.05
2022-12-24T10:37:24.416Z,34.13
2022-12-24T10:39:52.419Z,24.77
2022-12-24T10:42:21.747Z,35.03
2022-12-24T10:44:51.976Z,32.50
2022-12-24T10:47:21.167Z,40.47
2022-12-24T10:49:57.339Z,38.17
2022-12-24T10:52:28.818Z,37.25
2022-12-24T10:55:17.868Z,32.40
2022-12-24T10:57:56.175Z,36.72
2022-12-24T11:00:29.959Z,34.47
2022-12-24T11:03:12.599Z,33.72
2022-12-24T11:05:40.048Z,31.42
2022-12-24T11:08:17.342Z,34.25
2022-12-24T11:10:55.293Z,39.50
2022-12-24T11:13:39.088Z,34.53
2022-12-24T11:16:08.180Z,36.53
2022-12-24T11:18:38.365Z,29.23
2022-12-24T11:21:06.196Z,35.00
2022-12-24T11:23:32.993Z,31.95
2022-12-24T11:26:00.139Z,26.98
2022-12-24T11:28:29.610Z,36.15
2022-12-24T11:31:06.079Z,39.40
2022-12-24T11:33:50.407Z,25.20
2022-12-24T11:36:24.020Z,34.10
2022-12-24T11:38:57.041Z,44.58
2022-12-24T11:41:25.967Z,32.20
2022-12-24T11:44:03.630Z,49.83
2022-12-24T11:46:43.380Z,39.33
2022-12-24T11:49:17.575Z,45.25
2022-12-24T11:52:09.814Z,32.50
2022-12-24T11:55:10.260Z,31.83
2022-12-24T11:57:53.106Z,36.05
2022-12-24T12:00:20.064Z,43.67
2022-12-24T12:02:49.802Z,42.40
2022-12-24T12:05:21.024Z,42.00
2022-12-24T12:07:51.813Z,30.92
2022-12-24T12:10:25.353Z,50.67
2022-12-24T12:13:01.355Z,44.72
2022-12-24T12:15:35.011Z,36.85
2022-12-24T12:18:13.409Z,42.85
2022-12-24T12:20:52.595Z,37.63
2022-12-24T12:23:30.025Z,41.63
2022-12-24T12:26:19.919Z,34.63
2022-12-24T12:29:09.589Z,47.97
2022-12-24T12:31:45.619Z,32.80
2022-12-24T12:34:16.693Z,35.33
2022-12-24T12:36:48.279Z,44.30
2022-12-24T12:39:14.968Z,37.25
2022-12-24T12:42:19.565Z,42.72
2022-12-24T12:45:01.163Z,31.63
2022-12-24T12:48:09.983Z,52.50
2022-12-24T12:50:44.657Z,43.38
2022-12-24T12:53:14.345Z,43.58
2022-12-24T12:56:01.603Z,51.67
2022-12-24T12:58:37.469Z,36.78
2022-12-24T13:01:32.034Z,35.25
2022-12-24T13:04:26.637Z,34.75
2022-12-24T13:07:06.728Z,41.30
2022-12-24T13:09:51.751Z,43.47
2022-12-24T13:12:31.553Z,39.40
2022-12-24T13:15:35.902Z,48.38
2022-12-24T13:18:05.447Z,37.90
2022-12-24T13:20:33.719Z,45.55
2022-12-24T13:23:13.422Z,41.28
2022-12-24T13:25:49.048Z,37.95
2022-12-24T13:28:18.265Z,46.50
2022-12-24T13:30:45.208Z,41.90
2022-12-24T13:33:33.456Z,33.03
2022-12-24T13:36:04.377Z,30.73
2022-12-24T13:38:53.485Z,32.85
2022-12-24T13:41:49.195Z,58.40
2022-12-24T13:47:04.711Z,40.40
2022-12-24T13:49:46.802Z,32.08
2022-12-24T13:52:16.525Z,39.85
2022-12-24T13:55:02.587Z,32.88
2022-12-24T13:57:32.279Z,35.60
2022-12-24T14:00:20.246Z,50.00
2022-12-24T14:02:52.851Z,33.25
2022-12-24T14:05:29.114Z,35.78
2022-12-24T14:07:57.651Z,28.17
2022-12-24T14:10:29.076Z,37.30
2022-12-24T14:12:55.912Z,29.70
2022-12-24T14:15:45.260Z,39.08
2022-12-24T14:18:18.362Z,27.60
2022-12-24T14:20:50.373Z,32.42
2022-12-24T14:23:37.449Z,43.47
2022-12-24T14:26:12.973Z,37.65
2022-12-24T14:28:43.952Z,40.58
2022-12-24T14:31:18.865Z,44.13
2022-12-24T14:36:15.572Z,33.20
2022-12-24T14:38:45.086Z,38.67
2022-12-24T14:41:37.364Z,39.17
2022-12-24T14:44:10.499Z,36.25
2022-12-24T14:46:42.744Z,42.10
2022-12-24T14:49:27.456Z,36.28
2022-12-24T14:52:30.759Z,35.22
2022-12-24T14:54:56.612Z,47.60
2022-12-24T14:57:26.151Z,32.10
2022-12-24T14:59:59.844Z,35.08
2022-12-24T15:02:47.856Z,38.65
2022-12-24T15:05:19.416Z,30.75
2022-12-24T15:07:53.234Z,41.35
2022-12-24T15:10:33.531Z,39.80
2022-12-24T15:13:27.200Z,34.72
2022-12-24T15:15:55.119Z,33.47
2022-12-24T15:18:28.323Z,38.25
2022-12-24T15:21:03.799Z,43.95
2022-12-24T15:23:36.922Z,36.92
2022-12-24T15:26:31.460Z,35.30
2022-12-24T15:29:03.303Z,45.03
2022-12-24T15:31:31.328Z,45.35
2022-12-24T15:33:59.724Z,35.00
2022-12-24T15:36:35.022Z,49.40
2022-12-24T15:39:15.017Z,42.30
2022-12-24T15:42:02.335Z,51.00
2022-12-24T15:44:33.068Z,45.13
2022-12-24T15:47:01.194Z,38.67
2022-12-24T15:49:29.980Z,43.58
2022-12-24T15:52:04.520Z,37.63
2022-12-24T15:54:32.159Z,42.97
2022-12-24T15:56:58.754Z,42.00
2022-12-24T15:59:31.875Z,41.13
2022-12-24T16:02:38.744Z,41.38
2022-12-24T16:05:21.604Z,47.92
2022-12-24T16:08:14.153Z,45.60
2022-12-24T16:10:50.130Z,45.95
2022-12-24T16:13:21.220Z,51.22
2022-12-24T16:16:08.628Z,49.08
2022-12-24T16:18:38.181Z,51.83
2022-12-24T16:21:06.304Z,49.30
2022-12-24T16:23:39.046Z,40.65
2022-12-24T16:26:05.672Z,43.53
2022-12-24T16:28:32.817Z,38.72
2022-12-24T16:30:59.699Z,48.65
2022-12-24T16:33:26.428Z,39.95
2022-12-24T16:35:53.305Z,45.00
2022-12-24T16:38:20.029Z,46.30
2022-12-24T16:40:46.945Z,50.13
2022-12-24T16:43:32.399Z,52.45
2022-12-24T16:46:05.471Z,38.60
2022-12-24T16:48:36.127Z,46.78
2022-12-24T16:51:02.835Z,49.40
2022-12-24T16:53:29.467Z,44.72
2022-12-24T16:55:56.275Z,50.55
2022-12-24T16:58:23.218Z,45.50
2022-12-24T17:00:50.243Z,40.17
2022-12-24T17:03:17.127Z,44.85
2022-12-24T17:05:44.650Z,48.40
2022-12-24T17:08:12.542Z,42.30
2022-12-24T17:10:39.915Z,49.97
2022-12-24T17:13:06.656Z,57.55
2022-12-24T17:15:33.632Z,46.65
2022-12-24T17:18:00.250Z,53.67
2022-12-24T17:20:27.035Z,46.58
2022-12-24T17:22:53.708Z,51.83
2022-12-24T17:25:20.406Z,61.15
2022-12-24T17:27:47.030Z,51.35
2022-12-24T17:30:13.891Z,66.88
2022-12-24T17:32:40.509Z,37.83
2022-12-24T17:35:08.133Z,43.08
2022-12-24T17:37:34.855Z,62.00
2022-12-24T17:40:01.756Z,51.30
2022-12-24T17:42:28.421Z,61.40
2022-12-24T17:44:55.014Z,55.60
2022-12-24T17:47:22.159Z,58.63
2022-12-24T17:49:48.888Z,57.83
2022-12-24T17:52:15.689Z,42.28
2022-12-24T17:54:42.720Z,42.80
2022-12-24T17:57:09.376Z,48.58
2022-12-24T17:59:36.018Z,61.45
2022-12-24T18:02:02.794Z,42.47
2022-12-24T18:04:29.535Z,37.03
2022-12-24T18:07:01.952Z,45.55
2022-12-24T18:09:29.928Z,37.78
2022-12-24T18:11:56.633Z,40.85
2022-12-24T18:14:23.862Z,41.88
2022-12-24T18:16:50.628Z,42.47
2022-12-24T18:19:17.813Z,41.10
2022-12-24T18:21:44.584Z,45.90
2022-12-24T18:24:13.882Z,45.42
2022-12-24T18:26:40.555Z,40.67
2022-12-24T18:29:08.719Z,46.83
2022-12-24T18:31:36.025Z,38.90
2022-12-24T18:34:05.266Z,33.13
2022-12-24T18:36:32.533Z,31.27
2022-12-24T18:38:59.348Z,41.70
2022-12-24T18:41:29.022Z,35.22
2022-12-24T18:43:56.854Z,30.55
2022-12-24T18:46:26.555Z,42.67
2022-12-24T18:48:54.980Z,38.03
2022-12-24T18:51:23.940Z,41.60
2022-12-24T18:53:51.283Z,40.17
2022-12-24T18:56:22.609Z,26.88
2022-12-24T18:58:51.644Z,33.83
2022-12-24T19:01:24.750Z,35.40
2022-12-24T19:03:51.672Z,41.30
2022-12-24T19:06:19.699Z,39.25
2022-12-24T19:08:57.197Z,31.33
2022-12-24T19:11:26.652Z,41.35
2022-12-24T19:13:53.466Z,40.13
2022-12-24T19:16:21.130Z,43.20
2022-12-24T19:18:48.180Z,44.60
2022-12-24T19:21:17.064Z,37.38
2022-12-24T19:23:45.012Z,38.38
2022-12-24T19:26:12.441Z,33.10
2022-12-24T19:28:39.450Z,34.00
2022-12-24T19:31:09.385Z,40.70
2022-12-24T19:33:43.140Z,39.30
2022-12-24T19:36:13.566Z,45.72
2022-12-24T19:38:40.892Z,31.00
2022-12-24T19:41:09.354Z,33.38
2022-12-24T19:43:43.406Z,26.50
2022-12-24T19:46:12.274Z,40.67
2022-12-24T19:48:39.182Z,30.70
2022-12-24T19:51:08.996Z,37.90
2022-12-24T19:53:36.544Z,40.60
2022-12-24T19:56:04.529Z,43.28
2022-12-24T19:58:32.593Z,40.65
2022-12-24T20:01:17.163Z,36.78
2022-12-24T20:03:45.459Z,49.08
2022-12-24T20:06:13.644Z,61.80
2022-12-24T20:08:40.869Z,53.35
2022-12-24T20:11:10.854Z,52.22
2022-12-24T20:13:39.499Z,48.20
2022-12-24T20:16:11.486Z,54.25
2022-12-24T20:18:38.485Z,46.35
2022-12-24T20:21:08.769Z,44.38
2022-12-24T20:23:38.324Z,59.45
2022-12-24T20:26:07.628Z,51.95
2022-12-24T20:28:35.679Z,55.40
2022-12-24T20:31:12.907Z,54.65
2022-12-24T20:33:41.155Z,56.83
2022-12-24T20:36:08.594Z,65.22
2022-12-24T20:38:36.946Z,50.95
2022-12-24T20:41:05.326Z,59.22
2022-12-24T20:43:37.140Z,59.38
2022-12-24T20:46:07.166Z,61.10
2022-12-24T20:48:34.559Z,56.72
2022-12-24T20:51:09.566Z,55.08
2022-12-24T20:53:38.326Z,58.28
2022-12-24T20:56:05.692Z,79.47
2022-12-24T20:58:32.340Z,72.82
2022-12-24T21:00:59.028Z,71.28
2022-12-24T21:03:26.096Z,57.33
2022-12-24T21:05:52.829Z,70.25
2022-12-24T21:08:19.509Z,88.72
2022-12-24T21:10:46.941Z,72.78
2022-12-24T21:13:13.579Z,65.78
2022-12-24T21:15:40.986Z,71.47
2022-12-24T21:18:11.691Z,65.00
2022-12-24T21:20:40.084Z,55.97
2022-12-24T21:23:07.423Z,65.75
2022-12-24T21:25:34.631Z,69.60
2022-12-24T21:28:01.371Z,59.67
2022-12-24T21:30:28.453Z,84.35
2022-12-24T21:32:55.105Z,67.07
2022-12-24T21:35:21.801Z,72.85
2022-12-24T21:37:48.407Z,62.95
2022-12-24T21:40:15.069Z,69.25
2022-12-24T21:42:42.213Z,64.10
2022-12-24T21:45:09.679Z,62.20
2022-12-24T21:47:37.991Z,56.50
2022-12-24T21:50:29.995Z,65.82
2022-12-24T21:53:17.823Z,62.33
2022-12-24T21:55:44.519Z,72.50
2022-12-24T21:58:11.280Z,60.20
2022-12-24T22:00:37.934Z,63.05
2022-12-24T22:03:04.910Z,59.60
2022-12-24T22:05:33.239Z,58.50
2022-12-24T22:08:18.493Z,69.40
2022-12-24T22:11:03.876Z,73.47
2022-12-24T22:13:31.827Z,68.68
2022-12-24T22:15:58.584Z,75.15
2022-12-24T22:18:26.298Z,67.32
2022-12-24T22:20:52.918Z,63.58
2022-12-24T22:23:19.691Z,61.22
2022-12-24T22:25:47.227Z,46.75
2022-12-24T22:28:14.318Z,51.78
2022-12-24T22:30:42.632Z,51.83
2022-12-24T22:33:10.670Z,75.78
2022-12-24T22:35:39.212Z,63.80
2022-12-24T22:38:09.105Z,66.50
2022-12-24T22:40:36.074Z,65.90
2022-12-24T22:43:02.791Z,73.18
2022-12-24T22:45:29.958Z,71.05
2022-12-24T22:47:56.603Z,75.63
2022-12-24T22:50:25.221Z,79.97
2022-12-24T22:52:53.150Z,75.10
2022-12-24T22:55:20.680Z,74.95
2022-12-24T22:57:47.325Z,73.90
2022-12-24T23:00:43.109Z,68.50
2022-12-24T23:03:11.058Z,78.18
2022-12-24T23:05:38.711Z,85.47
2022-12-24T23:08:06.405Z,65.22
2022-12-24T23:10:33.978Z,82.03
2022-12-24T23:13:19.251Z,68.75
2022-12-24T23:15:46.560Z,75.82
2022-12-24T23:18:13.550Z,73.32
2022-12-24T23:20:43.033Z,81.30
2022-12-24T23:23:09.673Z,77.20
2022-12-24T23:25:36.370Z,74.47
2022-12-24T23:28:03.617Z,73.05
2022-12-24T23:30:30.841Z,69.45
2022-12-24T23:32:57.866Z,80.43
2022-12-24T23:35:24.687Z,84.20
2022-12-24T23:37:51.915Z,68.00
2022-12-24T23:40:18.795Z,85.28
2022-12-24T23:42:45.396Z,64.57
2022-12-24T23:45:12.074Z,65.80
2022-12-24T23:47:38.676Z,65.80
2022-12-24T23:50:06.399Z,74.18
2022-12-24T23:52:33.076Z,83.47
2022-12-24T23:54:59.751Z,70.43
2022-12-24T23:57:26.731Z,65.40
2022-12-24T23:59:53.373Z,53.70
